EWG9MB EDDG-EDDH
Flight info
| Callsign | EWG9MB |
|---|---|
| Flight time | 0h 31m |
| Altitude | 23000 |
| Route | OSNAD1Z OSNAD M170 BASUM/N0395F240 Y850 PIXUR/N0390F230 Y850 MUBZI M105 RIBSO RIBSO7A |
| Aircraft | A320/M-SDE3FGHIRWY/LB1 |
Departure
| Time | 2026-04-20 17:04 |
|---|---|
| Airport | Münster Osnabrück Airport (EDDG) |
Arrival
| Time | 2026-04-20 17:36 |
|---|---|
| Airport | Hamburg Helmut Schmidt Airport (EDDH) |
| Time | Latitude | Longitude | Altitude | Speed | Heading |
|---|---|---|---|---|---|
| 2026-04-20 16:29 | 52.13162 | 7.69313 | 168 ft | 0 kts | 189° |
| 2026-04-20 16:54 | 52.13163 | 7.69313 | 168 ft | 1 kts | 189° |
| 2026-04-20 16:54 | 52.13173 | 7.69314 | 167 ft | 3 kts | 156° |
| 2026-04-20 16:54 | 52.13184 | 7.69307 | 168 ft | 2 kts | 172° |
| 2026-04-20 16:54 | 52.13195 | 7.69305 | 167 ft | 3 kts | 232° |
| 2026-04-20 16:55 | 52.13203 | 7.69331 | 167 ft | 3 kts | 252° |
| 2026-04-20 16:55 | 52.13209 | 7.69361 | 167 ft | 3 kts | 230° |
| 2026-04-20 16:55 | 52.13224 | 7.69379 | 167 ft | 3 kts | 202° |
| 2026-04-20 16:55 | 52.13241 | 7.69393 | 167 ft | 3 kts | 234° |
| 2026-04-20 16:56 | 52.13245 | 7.69405 | 167 ft | 1 kts | 251° |
| 2026-04-20 16:56 | 52.13246 | 7.69408 | 167 ft | 0 kts | 251° |
| 2026-04-20 17:00 | 52.13240 | 7.69360 | 167 ft | 4 kts | 271° |
| 2026-04-20 17:00 | 52.13252 | 7.69326 | 167 ft | 3 kts | 307° |
| 2026-04-20 17:00 | 52.13262 | 7.69317 | 167 ft | 2 kts | 339° |
| 2026-04-20 17:01 | 52.13287 | 7.69302 | 166 ft | 6 kts | 340° |
| 2026-04-20 17:01 | 52.13350 | 7.69267 | 165 ft | 13 kts | 341° |
| 2026-04-20 17:01 | 52.13438 | 7.69243 | 166 ft | 13 kts | 24° |
| 2026-04-20 17:01 | 52.13476 | 7.69364 | 168 ft | 12 kts | 71° |
| 2026-04-20 17:02 | 52.13502 | 7.69486 | 167 ft | 11 kts | 71° |
| 2026-04-20 17:02 | 52.13527 | 7.69602 | 167 ft | 10 kts | 72° |
| 2026-04-20 17:02 | 52.13553 | 7.69726 | 167 ft | 15 kts | 71° |
| 2026-04-20 17:02 | 52.13592 | 7.69911 | 165 ft | 15 kts | 70° |
| 2026-04-20 17:03 | 52.13662 | 7.70028 | 165 ft | 16 kts | 17° |
| 2026-04-20 17:03 | 52.13757 | 7.69997 | 164 ft | 9 kts | 333° |
| 2026-04-20 17:03 | 52.13771 | 7.69928 | 166 ft | 5 kts | 251° |
| 2026-04-20 17:03 | 52.13764 | 7.69896 | 167 ft | 1 kts | 250° |
| 2026-04-20 17:04 | 52.13761 | 7.69884 | 167 ft | 12 kts | 250° |
| 2026-04-20 17:04 | 52.13634 | 7.69281 | 171 ft | 95 kts | 251° |
| 2026-04-20 17:04 | 52.13345 | 7.67921 | 180 ft | 155 kts | 253° |
| 2026-04-20 17:04 | 52.12960 | 7.66279 | 887 ft | 151 kts | 254° |
| 2026-04-20 17:05 | 52.12625 | 7.64648 | 1652 ft | 154 kts | 255° |
| 2026-04-20 17:05 | 52.12265 | 7.62879 | 2086 ft | 177 kts | 253° |
| 2026-04-20 17:05 | 52.11834 | 7.60915 | 2623 ft | 191 kts | 251° |
| 2026-04-20 17:05 | 52.11343 | 7.58795 | 3161 ft | 206 kts | 251° |
| 2026-04-20 17:06 | 52.10856 | 7.56480 | 3514 ft | 233 kts | 252° |
| 2026-04-20 17:06 | 52.10159 | 7.54018 | 4185 ft | 246 kts | 227° |
| 2026-04-20 17:06 | 52.08722 | 7.52642 | 5101 ft | 241 kts | 185° |
| 2026-04-20 17:06 | 52.07137 | 7.53056 | 6038 ft | 229 kts | 144° |
| 2026-04-20 17:07 | 52.05826 | 7.54554 | 6920 ft | 233 kts | 141° |
| 2026-04-20 17:07 | 52.04525 | 7.56128 | 7808 ft | 233 kts | 131° |
| 2026-04-20 17:07 | 52.03680 | 7.58336 | 8696 ft | 234 kts | 106° |
| 2026-04-20 17:07 | 52.03482 | 7.61040 | 9162 ft | 254 kts | 82° |
| 2026-04-20 17:08 | 52.04078 | 7.63828 | 9820 ft | 266 kts | 64° |
| 2026-04-20 17:08 | 52.04884 | 7.66588 | 10552 ft | 279 kts | 68° |
| 2026-04-20 17:08 | 52.05652 | 7.69629 | 10894 ft | 303 kts | 70° |
| 2026-04-20 17:08 | 52.06437 | 7.72915 | 11429 ft | 317 kts | 70° |
| 2026-04-20 17:09 | 52.07236 | 7.76285 | 12216 ft | 323 kts | 70° |
| 2026-04-20 17:09 | 52.08053 | 7.79709 | 13050 ft | 327 kts | 70° |
| 2026-04-20 17:09 | 52.08891 | 7.83173 | 13858 ft | 331 kts | 69° |
| 2026-04-20 17:09 | 52.09749 | 7.86674 | 14590 ft | 335 kts | 69° |
| 2026-04-20 17:10 | 52.10621 | 7.90215 | 15293 ft | 339 kts | 69° |
| 2026-04-20 17:10 | 52.11506 | 7.93799 | 16016 ft | 343 kts | 69° |
| 2026-04-20 17:10 | 52.12400 | 7.97418 | 16732 ft | 347 kts | 69° |
| 2026-04-20 17:10 | 52.13306 | 8.01083 | 17447 ft | 351 kts | 69° |
| 2026-04-20 17:11 | 52.14223 | 8.04782 | 18144 ft | 354 kts | 69° |
| 2026-04-20 17:11 | 52.15148 | 8.08535 | 18786 ft | 358 kts | 69° |
| 2026-04-20 17:11 | 52.16074 | 8.12320 | 19385 ft | 361 kts | 69° |
| 2026-04-20 17:11 | 52.17003 | 8.16143 | 19999 ft | 364 kts | 70° |
| 2026-04-20 17:12 | 52.17938 | 8.19993 | 20602 ft | 367 kts | 70° |
| 2026-04-20 17:12 | 52.18983 | 8.23811 | 21184 ft | 371 kts | 62° |
| 2026-04-20 17:12 | 52.20465 | 8.27290 | 21759 ft | 377 kts | 51° |
| 2026-04-20 17:12 | 52.22350 | 8.30221 | 22320 ft | 383 kts | 40° |
| 2026-04-20 17:13 | 52.24630 | 8.32555 | 22878 ft | 389 kts | 30° |
| 2026-04-20 17:13 | 52.27031 | 8.34626 | 23155 ft | 390 kts | 30° |
| 2026-04-20 17:13 | 52.29428 | 8.36705 | 23199 ft | 390 kts | 30° |
| 2026-04-20 17:13 | 52.31833 | 8.38802 | 23197 ft | 390 kts | 31° |
| 2026-04-20 17:14 | 52.34194 | 8.40865 | 23194 ft | 390 kts | 31° |
| 2026-04-20 17:14 | 52.36592 | 8.42960 | 23196 ft | 390 kts | 31° |
| 2026-04-20 17:14 | 52.38981 | 8.45049 | 23195 ft | 389 kts | 31° |
| 2026-04-20 17:14 | 52.41371 | 8.47140 | 23191 ft | 389 kts | 30° |
| 2026-04-20 17:15 | 52.43757 | 8.49232 | 23194 ft | 387 kts | 30° |
| 2026-04-20 17:15 | 52.46132 | 8.51321 | 23186 ft | 387 kts | 29° |
| 2026-04-20 17:15 | 52.48499 | 8.53409 | 23190 ft | 386 kts | 29° |
| 2026-04-20 17:15 | 52.50869 | 8.55501 | 23186 ft | 386 kts | 29° |
| 2026-04-20 17:16 | 52.53237 | 8.57592 | 23189 ft | 386 kts | 29° |
| 2026-04-20 17:16 | 52.55601 | 8.59678 | 23181 ft | 386 kts | 29° |
| 2026-04-20 17:16 | 52.57967 | 8.61769 | 23180 ft | 386 kts | 29° |
| 2026-04-20 17:16 | 52.60182 | 8.64232 | 23176 ft | 383 kts | 44° |
| 2026-04-20 17:17 | 52.61874 | 8.67535 | 22938 ft | 373 kts | 53° |
| 2026-04-20 17:17 | 52.63392 | 8.70909 | 22413 ft | 368 kts | 54° |
| 2026-04-20 17:17 | 52.64898 | 8.74286 | 21846 ft | 364 kts | 54° |
| 2026-04-20 17:17 | 52.66390 | 8.77637 | 21306 ft | 361 kts | 54° |
| 2026-04-20 17:18 | 52.67916 | 8.80903 | 20771 ft | 359 kts | 47° |
| 2026-04-20 17:18 | 52.69871 | 8.83429 | 20288 ft | 355 kts | 30° |
| 2026-04-20 17:18 | 52.72030 | 8.85397 | 19782 ft | 353 kts | 30° |
| 2026-04-20 17:18 | 52.74180 | 8.87327 | 19282 ft | 351 kts | 29° |
| 2026-04-20 17:19 | 52.76323 | 8.89242 | 18808 ft | 349 kts | 29° |
| 2026-04-20 17:19 | 52.78451 | 8.91142 | 18326 ft | 347 kts | 29° |
| 2026-04-20 17:19 | 52.80564 | 8.93035 | 17805 ft | 344 kts | 29° |
| 2026-04-20 17:19 | 52.82660 | 8.94921 | 17324 ft | 341 kts | 30° |
| 2026-04-20 17:20 | 52.84740 | 8.96799 | 16843 ft | 339 kts | 30° |
| 2026-04-20 17:20 | 52.86799 | 8.98660 | 16370 ft | 336 kts | 30° |
| 2026-04-20 17:20 | 52.88845 | 9.00508 | 15905 ft | 334 kts | 30° |
| 2026-04-20 17:20 | 52.90873 | 9.02342 | 15454 ft | 331 kts | 30° |
| 2026-04-20 17:21 | 52.92886 | 9.04166 | 15018 ft | 328 kts | 30° |
| 2026-04-20 17:21 | 52.94886 | 9.05982 | 14574 ft | 325 kts | 31° |
| 2026-04-20 17:21 | 52.96842 | 9.07757 | 14150 ft | 323 kts | 31° |
| 2026-04-20 17:21 | 52.98833 | 9.09566 | 13678 ft | 321 kts | 31° |
| 2026-04-20 17:22 | 53.00760 | 9.11321 | 13195 ft | 319 kts | 31° |
| 2026-04-20 17:22 | 53.02696 | 9.13090 | 12724 ft | 317 kts | 31° |
| 2026-04-20 17:22 | 53.04621 | 9.14852 | 12254 ft | 315 kts | 31° |
| 2026-04-20 17:22 | 53.06534 | 9.16602 | 11783 ft | 313 kts | 31° |
| 2026-04-20 17:23 | 53.08433 | 9.18340 | 11317 ft | 311 kts | 31° |
| 2026-04-20 17:23 | 53.10323 | 9.20065 | 10869 ft | 309 kts | 31° |
| 2026-04-20 17:23 | 53.11595 | 9.21227 | 10562 ft | 307 kts | 31° |
| 2026-04-20 17:23 | 53.13440 | 9.22915 | 10134 ft | 305 kts | 31° |
| 2026-04-20 17:24 | 53.15286 | 9.24608 | 9844 ft | 297 kts | 31° |
| 2026-04-20 17:24 | 53.17059 | 9.26232 | 9702 ft | 285 kts | 31° |
| 2026-04-20 17:24 | 53.18765 | 9.27797 | 9562 ft | 274 kts | 31° |
| 2026-04-20 17:24 | 53.20414 | 9.29313 | 9255 ft | 269 kts | 31° |
| 2026-04-20 17:25 | 53.22050 | 9.30821 | 8853 ft | 268 kts | 31° |
| 2026-04-20 17:25 | 53.23677 | 9.32319 | 8460 ft | 266 kts | 32° |
| 2026-04-20 17:25 | 53.25290 | 9.33804 | 8074 ft | 264 kts | 31° |
| 2026-04-20 17:25 | 53.26900 | 9.35290 | 7646 ft | 264 kts | 32° |
| 2026-04-20 17:26 | 53.28497 | 9.36772 | 7243 ft | 262 kts | 32° |
| 2026-04-20 17:26 | 53.30088 | 9.38245 | 6866 ft | 260 kts | 32° |
| 2026-04-20 17:26 | 53.31672 | 9.39709 | 6435 ft | 260 kts | 31° |
| 2026-04-20 17:26 | 53.33253 | 9.41171 | 6025 ft | 258 kts | 32° |
| 2026-04-20 17:27 | 53.34778 | 9.42701 | 5613 ft | 253 kts | 40° |
| 2026-04-20 17:27 | 53.36040 | 9.44723 | 5201 ft | 250 kts | 51° |
| 2026-04-20 17:27 | 53.37153 | 9.46951 | 4977 ft | 248 kts | 51° |
| 2026-04-20 17:27 | 53.38253 | 9.49173 | 4987 ft | 247 kts | 52° |
| 2026-04-20 17:28 | 53.39358 | 9.51395 | 4987 ft | 248 kts | 50° |
| 2026-04-20 17:28 | 53.40476 | 9.53618 | 4989 ft | 250 kts | 51° |
| 2026-04-20 17:28 | 53.41574 | 9.55795 | 4985 ft | 236 kts | 51° |
| 2026-04-20 17:28 | 53.42592 | 9.57818 | 4925 ft | 220 kts | 51° |
| 2026-04-20 17:29 | 53.43558 | 9.59739 | 4789 ft | 210 kts | 51° |
| 2026-04-20 17:29 | 53.44476 | 9.61568 | 4647 ft | 201 kts | 51° |
| 2026-04-20 17:29 | 53.45363 | 9.63337 | 4431 ft | 196 kts | 51° |
| 2026-04-20 17:29 | 53.46241 | 9.65087 | 4155 ft | 195 kts | 52° |
| 2026-04-20 17:30 | 53.47108 | 9.66817 | 3840 ft | 196 kts | 52° |
| 2026-04-20 17:30 | 53.47978 | 9.68554 | 3582 ft | 194 kts | 52° |
| 2026-04-20 17:30 | 53.48838 | 9.70274 | 3322 ft | 191 kts | 51° |
| 2026-04-20 17:30 | 53.49705 | 9.72007 | 3059 ft | 190 kts | 52° |
| 2026-04-20 17:31 | 53.50551 | 9.73701 | 3007 ft | 189 kts | 52° |
| 2026-04-20 17:31 | 53.51401 | 9.75403 | 3012 ft | 191 kts | 52° |
| 2026-04-20 17:31 | 53.52245 | 9.77095 | 2997 ft | 191 kts | 52° |
| 2026-04-20 17:31 | 53.53089 | 9.78787 | 2864 ft | 187 kts | 52° |
| 2026-04-20 17:32 | 53.53924 | 9.80462 | 2629 ft | 185 kts | 52° |
| 2026-04-20 17:32 | 53.54751 | 9.82122 | 2380 ft | 185 kts | 52° |
| 2026-04-20 17:32 | 53.55575 | 9.83777 | 2115 ft | 182 kts | 51° |
| 2026-04-20 17:32 | 53.56364 | 9.85364 | 1873 ft | 169 kts | 51° |
| 2026-04-20 17:33 | 53.57070 | 9.86783 | 1665 ft | 148 kts | 51° |
| 2026-04-20 17:33 | 53.57708 | 9.88067 | 1467 ft | 136 kts | 51° |
| 2026-04-20 17:33 | 53.58286 | 9.89232 | 1292 ft | 126 kts | 50° |
| 2026-04-20 17:33 | 53.58846 | 9.90360 | 1092 ft | 123 kts | 51° |
| 2026-04-20 17:34 | 53.59396 | 9.91466 | 880 ft | 123 kts | 51° |
| 2026-04-20 17:34 | 53.59943 | 9.92569 | 718 ft | 122 kts | 52° |
| 2026-04-20 17:34 | 53.60488 | 9.93706 | 590 ft | 125 kts | 49° |
| 2026-04-20 17:34 | 53.61047 | 9.94805 | 366 ft | 125 kts | 51° |
| 2026-04-20 17:35 | 53.61601 | 9.95930 | 159 ft | 123 kts | 48° |
| 2026-04-20 17:35 | 53.62145 | 9.97024 | 46 ft | 116 kts | 48° |
| 2026-04-20 17:35 | 53.62566 | 9.97875 | 48 ft | 71 kts | 50° |
| 2026-04-20 17:35 | 53.62828 | 9.98398 | 51 ft | 50 kts | 50° |
| 2026-04-20 17:36 | 53.63027 | 9.98799 | 49 ft | 41 kts | 50° |
| 2026-04-20 17:36 | 53.63202 | 9.99155 | 52 ft | 38 kts | 50° |
| 2026-04-20 17:36 | 53.63292 | 9.99481 | 50 ft | 28 kts | 90° |
| 2026-04-20 17:36 | 53.63277 | 9.99663 | 50 ft | 1 kts | 98° |
| 2026-04-20 17:37 | 53.63277 | 9.99666 | 50 ft | 0 kts | 98° |
| 2026-04-20 17:37 | 53.63276 | 9.99677 | 50 ft | 6 kts | 98° |
| 2026-04-20 17:38 | 53.63299 | 9.99805 | 50 ft | 15 kts | 50° |
| 2026-04-20 17:38 | 53.63373 | 9.99951 | 51 ft | 17 kts | 50° |
| 2026-04-20 17:38 | 53.63429 | 10.00089 | 51 ft | 13 kts | 79° |
| 2026-04-20 17:38 | 53.63362 | 10.00164 | 51 ft | 11 kts | 176° |
| 2026-04-20 17:39 | 53.63328 | 10.00192 | 50 ft | 4 kts | 110° |
| 2026-04-20 17:39 | 53.63330 | 10.00247 | 51 ft | 6 kts | 85° |
| 2026-04-20 17:39 | 53.63331 | 10.00323 | 51 ft | 6 kts | 92° |
| 2026-04-20 17:39 | 53.63331 | 10.00362 | 51 ft | 0 kts | 88° |
| 2026-04-20 17:40 | 53.63331 | 10.00363 | 51 ft | 0 kts | 88° |
| 2026-04-20 17:40 | 53.63331 | 10.00364 | 51 ft | 0 kts | 88° |